Time;durP1;ratioP1;P1;durP2;ratioP2;P2;SDS_P1;SDS_P2;PMS_P1;PMS_P2;Temp;Humidity;BMP_temperature;BMP_pressure;BME280_temperature;BME280_humidity;BME280_pressure;Samples;Min_cycle;Max_cycle;Signal;HPM_P1;HPM_P2
2023/06/12 03:01:44;;;;;;;2.13;1.95;;;27.10;44.20;;;;;;5322349;23;46049;-61
2023/06/12 03:04:11;;;;;;;2.10;1.98;;;27.10;44.30;;;;;;4910680;28;46130;-60
2023/06/12 03:06:37;;;;;;;2.20;2.00;;;27.10;44.30;;;;;;4862968;28;46012;-59
2023/06/12 03:09:02;;;;;;;2.17;1.98;;;27.10;44.30;;;;;;4932723;28;45684;-60
2023/06/12 03:11:28;;;;;;;1.98;1.88;;;27.10;44.30;;;;;;4894506;28;45522;-61
2023/06/12 03:13:54;;;;;;;2.05;1.85;;;27.10;44.30;;;;;;4939942;28;45504;-61
2023/06/12 03:16:20;;;;;;;2.30;2.10;;;27.10;44.40;;;;;;4938998;28;45023;-60
2023/06/12 03:18:46;;;;;;;2.35;2.15;;;27.10;44.30;;;;;;4960214;28;45227;-61
2023/06/12 03:21:11;;;;;;;2.25;2.05;;;27.10;44.40;;;;;;4957303;28;45338;-61
2023/06/12 03:23:37;;;;;;;1.98;1.88;;;27.10;44.40;;;;;;4946534;28;45397;-60
2023/06/12 03:26:04;;;;;;;2.38;2.17;;;27.10;44.40;;;;;;4952386;28;46646;-60
2023/06/12 03:28:29;;;;;;;2.15;1.95;;;27.10;44.40;;;;;;4940434;28;45972;-63
2023/06/12 03:30:55;;;;;;;2.20;2.00;;;27.00;44.40;;;;;;4940874;28;45639;-61
2023/06/12 03:33:20;;;;;;;2.38;2.17;;;27.00;44.40;;;;;;4931543;28;45745;-59
2023/06/12 03:35:46;;;;;;;2.22;2.08;;;27.00;44.40;;;;;;4953377;28;45512;-60
2023/06/12 03:38:12;;;;;;;2.08;1.98;;;27.00;44.40;;;;;;4944184;28;45094;-59
2023/06/12 03:40:37;;;;;;;2.70;2.17;;;27.00;44.50;;;;;;4956217;28;44899;-60
2023/06/12 03:43:03;;;;;;;2.40;2.20;;;27.00;44.50;;;;;;4967175;28;45581;-60
2023/06/12 03:45:28;;;;;;;1.98;1.80;;;27.00;44.50;;;;;;4941507;28;45578;-58
2023/06/12 03:47:54;;;;;;;2.35;2.15;;;27.00;44.60;;;;;;4942468;28;45754;-63
2023/06/12 03:50:22;;;;;;;1.58;1.48;;;27.00;44.50;;;;;;4938851;28;44900;-60
2023/06/12 03:52:47;;;;;;;2.45;2.25;;;27.00;44.60;;;;;;4960687;28;45900;-60
2023/06/12 03:55:13;;;;;;;2.10;2.00;;;27.00;44.60;;;;;;4962529;28;45301;-63
2023/06/12 03:57:38;;;;;;;2.40;2.20;;;27.00;44.60;;;;;;4950220;28;45501;-60
2023/06/12 04:00:05;;;;;;;2.45;2.25;;;27.00;44.60;;;;;;4951441;28;45161;-61
2023/06/12 04:02:30;;;;;;;1.73;1.63;;;27.00;44.60;;;;;;4931612;28;47501;-62
2023/06/12 04:04:56;;;;;;;1.88;1.77;;;27.00;44.60;;;;;;4937638;28;45337;-61
2023/06/12 04:07:22;;;;;;;2.25;2.05;;;27.00;44.70;;;;;;4934003;28;45271;-60
2023/06/12 04:09:48;;;;;;;2.15;2.03;;;27.00;44.70;;;;;;4938187;28;45477;-61
2023/06/12 04:12:13;;;;;;;2.40;2.20;;;26.90;44.60;;;;;;4930644;28;45456;-60
2023/06/12 04:14:39;;;;;;;2.20;2.00;;;27.00;44.70;;;;;;4925457;28;45399;-60
2023/06/12 04:17:04;;;;;;;2.00;1.83;;;27.00;44.70;;;;;;4931147;28;45342;-61
2023/06/12 04:19:30;;;;;;;2.20;1.95;;;26.90;44.70;;;;;;4907301;28;45274;-61
2023/06/12 04:21:56;;;;;;;2.15;2.00;;;26.90;44.70;;;;;;4933702;28;47003;-61
2023/06/12 04:24:22;;;;;;;2.03;1.73;;;26.90;44.80;;;;;;4944599;28;45253;-62
2023/06/12 04:26:48;;;;;;;2.05;1.92;;;26.90;44.80;;;;;;4935446;28;47357;-62
2023/06/12 04:29:15;;;;;;;2.13;1.92;;;26.90;44.80;;;;;;4946959;28;45524;-60
2023/06/12 04:31:40;;;;;;;2.22;2.03;;;26.90;44.80;;;;;;4933137;28;45349;-61
2023/06/12 04:34:07;;;;;;;1.75;1.65;;;26.90;44.80;;;;;;4944324;28;45246;-62
2023/06/12 04:36:37;;;;;;;2.08;1.90;;;26.90;44.80;;;;;;4932232;28;45471;-60
2023/06/12 04:39:04;;;;;;;1.65;1.55;;;26.90;44.80;;;;;;4957658;28;44951;-60
2023/06/12 04:41:32;;;;;;;1.92;1.83;;;26.90;44.80;;;;;;4918577;28;45449;-61
2023/06/12 04:43:58;;;;;;;1.75;1.65;;;26.90;44.80;;;;;;4958396;28;45171;-62
2023/06/12 04:46:24;;;;;;;2.10;1.90;;;27.00;44.90;;;;;;4932281;28;45236;-61
2023/06/12 04:48:50;;;;;;;2.53;1.58;;;26.90;44.80;;;;;;4941545;28;45616;-62
2023/06/12 04:51:16;;;;;;;2.20;1.67;;;26.90;44.80;;;;;;4937584;28;45729;-61
2023/06/12 04:53:43;;;;;;;2.05;1.95;;;26.90;44.90;;;;;;4926283;28;45435;-60
2023/06/12 04:56:09;;;;;;;1.73;1.63;;;26.90;44.90;;;;;;4936598;28;45381;-59
2023/06/12 04:58:39;;;;;;;1.80;1.70;;;26.90;44.90;;;;;;4950032;28;44852;-61
2023/06/12 05:01:04;;;;;;;1.88;1.77;;;26.90;44.90;;;;;;4920634;28;45536;-62
2023/06/12 05:03:33;;;;;;;1.70;1.60;;;26.90;44.90;;;;;;4924675;28;45288;-60
2023/06/12 05:05:58;;;;;;;2.05;1.90;;;26.90;44.90;;;;;;4916843;28;45208;-60
2023/06/12 05:08:24;;;;;;;1.60;1.50;;;26.90;44.90;;;;;;4941958;28;45423;-61
2023/06/12 05:10:50;;;;;;;1.73;1.60;;;26.90;44.90;;;;;;4933887;28;46091;-58
2023/06/12 05:13:15;;;;;;;1.90;1.80;;;26.90;45.00;;;;;;4959521;28;45027;-60
2023/06/12 05:15:41;;;;;;;2.83;1.90;;;26.90;44.90;;;;;;4926334;28;45519;-61
2023/06/12 05:18:07;;;;;;;1.88;1.60;;;26.90;44.90;;;;;;4931262;28;45267;-60
2023/06/12 05:20:33;;;;;;;1.98;1.88;;;26.90;44.90;;;;;;4929951;28;46350;-57
2023/06/12 05:22:58;;;;;;;2.10;1.92;;;26.90;44.90;;;;;;4901435;28;45385;-61
2023/06/12 05:25:24;;;;;;;1.88;1.77;;;26.90;44.80;;;;;;4944991;28;45405;-60
2023/06/12 05:27:50;;;;;;;1.80;1.70;;;27.00;44.80;;;;;;4940101;28;45260;-63
2023/06/12 05:30:16;;;;;;;1.58;1.48;;;27.00;44.80;;;;;;4933101;28;46406;-60
2023/06/12 05:32:41;;;;;;;1.92;1.83;;;27.00;44.90;;;;;;4937847;28;45123;-61
2023/06/12 05:35:07;;;;;;;1.92;1.83;;;26.90;44.90;;;;;;4929688;28;45185;-60
2023/06/12 05:37:33;;;;;;;1.77;1.67;;;26.90;44.90;;;;;;4925109;28;45243;-60
2023/06/12 05:39:58;;;;;;;1.50;1.40;;;26.90;44.90;;;;;;4941842;28;45767;-61
2023/06/12 05:42:24;;;;;;;1.50;1.33;;;26.90;45.00;;;;;;4935851;28;45549;-62
2023/06/12 05:44:50;;;;;;;1.52;1.42;;;26.90;45.00;;;;;;4952166;28;45332;-60
2023/06/12 05:47:15;;;;;;;1.58;1.48;;;26.90;45.00;;;;;;4932331;28;45594;-62
2023/06/12 05:49:41;;;;;;;1.60;1.50;;;26.90;45.00;;;;;;4941114;28;45453;-60
2023/06/12 05:52:07;;;;;;;1.60;1.50;;;26.90;45.00;;;;;;4935339;28;45059;-63
2023/06/12 05:54:36;;;;;;;1.55;1.45;;;26.90;45.00;;;;;;4908693;28;45474;-61
2023/06/12 05:57:02;;;;;;;1.63;1.52;;;27.00;45.00;;;;;;4934206;28;45637;-60
2023/06/12 05:59:28;;;;;;;1.52;1.42;;;27.00;45.00;;;;;;4943554;28;45598;-61
2023/06/12 06:01:55;;;;;;;1.40;1.30;;;27.00;44.90;;;;;;4931674;28;45675;-62
2023/06/12 06:04:20;;;;;;;1.52;1.42;;;27.00;44.90;;;;;;4955157;28;45619;-62
2023/06/12 06:06:47;;;;;;;1.90;1.52;;;27.00;44.90;;;;;;4918866;28;45542;-60
2023/06/12 06:09:13;;;;;;;1.58;1.48;;;27.00;44.90;;;;;;4941799;28;46966;-61
2023/06/12 06:11:39;;;;;;;2.00;1.90;;;27.00;44.90;;;;;;4934771;28;45719;-60
2023/06/12 06:14:04;;;;;;;1.92;1.80;;;27.10;44.90;;;;;;4942177;28;45035;-61
2023/06/12 06:16:30;;;;;;;1.52;1.42;;;27.10;44.80;;;;;;4933467;28;45291;-62
2023/06/12 06:18:56;;;;;;;1.70;1.60;;;27.10;44.80;;;;;;4952146;28;46240;-61
2023/06/12 06:21:21;;;;;;;1.65;1.55;;;27.10;44.70;;;;;;4936128;28;45444;-61
2023/06/12 06:23:48;;;;;;;1.50;1.40;;;27.20;44.80;;;;;;4940502;28;45626;-60
2023/06/12 06:26:14;;;;;;;1.50;1.40;;;27.20;44.70;;;;;;4937011;28;44794;-63
2023/06/12 06:28:40;;;;;;;1.90;1.70;;;27.20;44.70;;;;;;4942815;28;45634;-61
2023/06/12 06:31:06;;;;;;;1.90;1.80;;;27.20;44.70;;;;;;4931114;28;45427;-61
2023/06/12 06:33:32;;;;;;;1.80;1.70;;;27.30;44.70;;;;;;4924081;28;45412;-60
2023/06/12 06:35:58;;;;;;;1.70;1.60;;;27.30;45.20;;;;;;4933414;28;45514;-61
2023/06/12 06:38:24;;;;;;;1.85;1.75;;;27.30;44.50;;;;;;4941925;28;45639;-62
2023/06/12 06:40:53;;;;;;;1.70;1.60;;;27.40;44.50;;;;;;4945525;28;45044;-61
2023/06/12 06:43:19;;;;;;;2.08;1.70;;;27.40;45.00;;;;;;4939171;28;45076;-61
2023/06/12 06:45:44;;;;;;;1.63;1.52;;;27.40;44.30;;;;;;4917554;28;45266;-62
2023/06/12 06:48:12;;;;;;;1.75;1.65;;;27.50;44.30;;;;;;4938928;28;45388;-61
2023/06/12 06:50:37;;;;;;;1.80;1.70;;;27.50;44.30;;;;;;4931926;28;45172;-62
2023/06/12 06:53:03;;;;;;;1.73;1.63;;;27.50;44.20;;;;;;4940383;28;45215;-59
2023/06/12 06:55:28;;;;;;;1.80;1.70;;;27.50;44.20;;;;;;4935775;28;45823;-62
2023/06/12 06:57:54;;;;;;;2.10;1.48;;;27.60;44.20;;;;;;4940742;28;45760;-60
2023/06/12 07:00:21;;;;;;;1.63;1.52;;;27.50;44.10;;;;;;4933332;28;44882;-61
2023/06/12 07:02:50;;;;;;;1.70;1.60;;;27.60;44.10;;;;;;4958606;28;45151;-60
2023/06/12 07:05:16;;;;;;;1.90;1.77;;;27.60;44.00;;;;;;4956014;28;45251;-59
2023/06/12 07:07:43;;;;;;;1.58;1.42;;;27.70;44.00;;;;;;4930791;28;46182;-60
2023/06/12 07:10:09;;;;;;;1.60;1.50;;;27.70;43.90;;;;;;4957303;28;45665;-61
2023/06/12 07:12:35;;;;;;;1.60;1.50;;;27.70;44.50;;;;;;4924321;28;45461;-60
2023/06/12 07:15:00;;;;;;;1.60;1.50;;;27.70;43.90;;;;;;4960946;28;45337;-61
2023/06/12 07:17:26;;;;;;;2.13;1.90;;;27.70;43.80;;;;;;4933698;28;46177;-60
2023/06/12 07:19:52;;;;;;;1.60;1.50;;;27.80;43.80;;;;;;4949233;28;44833;-60
2023/06/12 07:22:17;;;;;;;2.50;2.03;;;27.80;43.70;;;;;;4959041;28;45597;-60
2023/06/12 07:24:43;;;;;;;1.52;1.42;;;27.80;43.70;;;;;;4966995;28;44972;-60
2023/06/12 07:27:08;;;;;;;1.70;1.60;;;27.80;43.60;;;;;;4936799;28;45451;-60
2023/06/12 07:29:34;;;;;;;1.77;1.67;;;27.90;43.70;;;;;;4965413;28;45288;-62
2023/06/12 07:32:00;;;;;;;1.80;1.70;;;27.90;43.60;;;;;;4938478;28;44789;-60
2023/06/12 07:34:26;;;;;;;2.17;1.80;;;27.90;43.50;;;;;;4949282;28;45382;-61
2023/06/12 07:36:52;;;;;;;1.60;1.50;;;28.00;43.60;;;;;;4944647;28;46432;-63
2023/06/12 07:39:18;;;;;;;1.65;1.55;;;28.00;43.50;;;;;;4947822;28;45626;-62
2023/06/12 07:41:43;;;;;;;2.00;1.70;;;28.00;43.50;;;;;;4924132;28;45546;-60
2023/06/12 07:44:12;;;;;;;3.25;1.55;;;28.00;43.40;;;;;;4934577;28;45092;-62
2023/06/12 07:46:37;;;;;;;1.55;1.45;;;28.00;43.40;;;;;;4921856;28;47526;-61
2023/06/12 07:49:03;;;;;;;2.22;1.80;;;28.00;43.30;;;;;;4929093;28;45002;-61
2023/06/12 07:51:29;;;;;;;2.33;1.52;;;28.10;43.30;;;;;;4945251;28;45562;-61
2023/06/12 07:53:54;;;;;;;2.35;1.80;;;28.00;43.30;;;;;;4945637;28;45557;-62
2023/06/12 07:56:20;;;;;;;1.77;1.65;;;28.10;43.30;;;;;;4921917;28;45531;-61
2023/06/12 07:58:46;;;;;;;1.88;1.77;;;28.10;43.30;;;;;;4968024;28;45833;-61
2023/06/12 08:01:13;;;;;;;1.60;1.50;;;28.10;43.20;;;;;;4929956;28;44769;-61
2023/06/12 08:03:42;;;;;;;2.08;1.88;;;28.10;43.20;;;;;;4916598;28;45789;-61
2023/06/12 08:06:09;;;;;;;1.67;1.58;;;28.20;43.20;;;;;;4916128;28;47154;-62
2023/06/12 08:08:44;;;;;;;1.80;1.70;;;28.10;43.20;;;;;;4923018;28;45341;-62
2023/06/12 08:11:10;;;;;;;2.00;1.80;;;28.10;43.00;;;;;;4915505;28;45604;-63
2023/06/12 08:13:35;;;;;;;2.08;1.90;;;28.20;43.10;;;;;;4926550;28;45848;-61
2023/06/12 08:16:02;;;;;;;1.95;1.85;;;28.20;43.10;;;;;;4915604;28;45284;-61
2023/06/12 08:18:27;;;;;;;2.00;1.90;;;28.20;43.10;;;;;;4906344;28;45633;-60
2023/06/12 08:20:53;;;;;;;2.08;1.98;;;28.20;43.10;;;;;;4917207;28;45479;-62
2023/06/12 08:23:19;;;;;;;2.00;1.67;;;28.20;43.00;;;;;;4907808;28;45618;-60
2023/06/12 08:25:45;;;;;;;2.17;1.98;;;28.20;43.00;;;;;;4916095;28;47642;-61
2023/06/12 08:28:10;;;;;;;2.38;2.17;;;28.20;43.00;;;;;;4926989;28;45475;-61
2023/06/12 08:30:36;;;;;;;1.92;1.83;;;28.20;43.00;;;;;;4932963;28;45346;-61
2023/06/12 08:33:03;;;;;;;1.63;1.52;;;28.30;43.00;;;;;;4938690;28;45750;-61
2023/06/12 08:35:29;;;;;;;1.98;1.88;;;28.30;43.00;;;;;;4901615;28;45444;-61
2023/06/12 08:37:54;;;;;;;2.50;1.92;;;28.30;43.00;;;;;;4922859;28;45054;-61
2023/06/12 08:40:20;;;;;;;1.95;1.80;;;28.30;42.90;;;;;;4914611;28;45362;-61
2023/06/12 08:42:50;;;;;;;2.20;2.00;;;28.30;42.90;;;;;;4934013;28;45599;-58
2023/06/12 08:45:15;;;;;;;2.85;2.25;;;28.30;42.40;;;;;;4916541;28;45169;-61
2023/06/12 08:47:41;;;;;;;4.97;2.53;;;28.30;41.50;;;;;;4934708;28;46221;-61
2023/06/12 08:50:07;;;;;;;3.25;2.95;;;28.30;40.60;;;;;;4917864;28;45515;-63
2023/06/12 08:52:32;;;;;;;3.22;2.72;;;28.30;40.10;;;;;;4905021;28;45455;-62
2023/06/12 08:54:58;;;;;;;5.90;3.38;;;28.30;40.00;;;;;;4924236;28;45493;-62
2023/06/12 08:57:24;;;;;;;6.30;3.50;;;28.30;39.30;;;;;;4904295;28;45263;-60
2023/06/12 08:59:50;;;;;;;4.03;3.22;;;28.30;38.90;;;;;;4928320;28;45159;-60
2023/06/12 09:02:16;;;;;;;3.97;3.30;;;28.30;38.30;;;;;;4895249;28;44793;-61
2023/06/12 09:04:54;;;;;;;8.35;3.13;;;28.30;37.70;;;;;;4921434;28;45334;-61
2023/06/12 09:07:20;;;;;;;4.63;2.97;;;28.30;36.00;;;;;;4917664;28;45188;-61
2023/06/12 09:09:46;;;;;;;9.63;3.17;;;28.40;37.00;;;;;;4907705;28;45032;-61
2023/06/12 09:12:15;;;;;;;3.30;3.00;;;28.30;37.60;;;;;;4899821;28;45465;-62
2023/06/12 09:14:44;;;;;;;2.83;2.53;;;28.30;36.90;;;;;;4920404;28;45451;-61
2023/06/12 09:17:10;;;;;;;3.50;3.20;;;28.30;36.90;;;;;;4897251;28;45213;-61
2023/06/12 09:19:36;;;;;;;4.00;3.03;;;28.30;36.50;;;;;;4924373;28;45444;-61
2023/06/12 09:22:03;;;;;;;4.88;2.90;;;28.30;36.10;;;;;;4912021;28;45678;-63
2023/06/12 09:24:28;;;;;;;3.13;2.85;;;28.40;36.10;;;;;;4925095;28;46559;-60
2023/06/12 09:26:57;;;;;;;4.07;3.00;;;28.40;35.70;;;;;;4915020;28;45605;-61
2023/06/12 09:29:27;;;;;;;4.65;2.95;;;28.40;35.00;;;;;;4925694;28;45313;-61
2023/06/12 09:31:53;;;;;;;4.97;3.47;;;28.40;34.80;;;;;;4913730;28;45065;-60
2023/06/12 09:34:18;;;;;;;4.05;3.10;;;28.40;35.20;;;;;;4919778;28;45690;-61
2023/06/12 09:36:44;;;;;;;5.43;3.38;;;28.40;34.80;;;;;;4916778;28;45722;-62
2023/06/12 09:39:15;;;;;;;4.80;3.20;;;28.40;34.80;;;;;;4907648;28;46562;-61
2023/06/12 09:41:48;;;;;;;3.38;3.08;;;28.40;34.50;;;;;;4916537;28;45494;-59
2023/06/12 09:44:15;;;;;;;6.00;2.78;;;28.40;34.20;;;;;;4920114;28;45330;-61
2023/06/12 09:46:41;;;;;;;3.95;2.97;;;28.40;34.70;;;;;;4897035;28;45356;-60
2023/06/12 09:49:07;;;;;;;3.42;3.03;;;28.40;34.70;;;;;;4922097;28;45614;-63
2023/06/12 09:51:33;;;;;;;4.35;3.22;;;28.40;34.50;;;;;;4913857;28;45589;-60
2023/06/12 09:53:59;;;;;;;4.40;2.90;;;28.40;34.50;;;;;;4918951;28;45409;-60
2023/06/12 09:56:24;;;;;;;3.30;2.90;;;28.40;34.20;;;;;;4886250;28;46554;-60
2023/06/12 09:58:50;;;;;;;5.35;3.15;;;28.50;34.30;;;;;;4925440;28;45539;-60
2023/06/12 10:01:17;;;;;;;4.78;3.17;;;28.50;34.00;;;;;;4916171;28;45252;-60
2023/06/12 10:03:44;;;;;;;3.92;2.95;;;28.50;34.00;;;;;;4937775;28;45466;-62
2023/06/12 10:06:12;;;;;;;2.78;2.50;;;28.50;33.90;;;;;;4933335;28;45406;-61
2023/06/12 10:08:37;;;;;;;5.93;2.83;;;28.50;33.60;;;;;;4924868;28;45179;-61
2023/06/12 10:11:03;;;;;;;3.58;2.85;;;28.50;33.80;;;;;;4933540;28;45204;-60
2023/06/12 10:13:28;;;;;;;3.92;2.88;;;28.50;33.60;;;;;;4939024;28;45609;-60
2023/06/12 10:15:54;;;;;;;3.30;2.70;;;28.40;33.60;;;;;;4946044;28;45242;-61
2023/06/12 10:18:20;;;;;;;6.63;3.00;;;28.50;33.60;;;;;;4936961;28;45496;-63
2023/06/12 10:20:46;;;;;;;4.22;2.90;;;28.50;33.60;;;;;;4949829;28;44871;-61
2023/06/12 10:23:11;;;;;;;7.15;2.60;;;28.50;33.50;;;;;;4941720;28;46804;-60
2023/06/12 10:25:37;;;;;;;5.15;2.78;;;28.50;33.60;;;;;;4933095;28;45330;-60
2023/06/12 10:28:02;;;;;;;4.03;3.28;;;28.50;33.50;;;;;;4939086;28;45312;-60
2023/06/12 10:30:28;;;;;;;5.13;3.03;;;28.50;33.60;;;;;;4934347;28;45505;-61
2023/06/12 10:32:53;;;;;;;3.75;2.40;;;28.50;33.50;;;;;;4924050;28;46679;-62
2023/06/12 10:35:31;;;;;;;3.40;3.00;;;28.50;33.50;;;;;;4931421;28;45854;-62
2023/06/12 10:37:57;;;;;;;8.00;2.60;;;28.60;32.80;;;;;;4939420;28;45140;-60
2023/06/12 10:40:23;;;;;;;3.00;2.35;;;28.60;33.50;;;;;;4931829;28;45443;-60
2023/06/12 10:42:51;;;;;;;5.80;2.47;;;28.60;33.40;;;;;;4941320;28;46208;-60
2023/06/12 10:45:30;;;;;;;5.35;2.45;;;28.60;33.40;;;;;;4932542;28;45480;-62
2023/06/12 10:48:05;;;;;;;3.88;3.22;;;28.60;32.80;;;;;;4938125;28;45222;-61
2023/06/12 10:50:31;;;;;;;3.92;3.10;;;28.60;32.20;;;;;;4934652;28;45543;-61
2023/06/12 10:52:59;;;;;;;3.50;2.55;;;28.60;32.70;;;;;;4942168;28;47527;-61
2023/06/12 10:55:28;;;;;;;2.65;2.45;;;28.60;32.60;;;;;;4918981;28;45619;-62
2023/06/12 10:57:54;;;;;;;3.47;2.47;;;28.60;32.20;;;;;;4943788;28;45361;-59
2023/06/12 11:00:35;;;;;;;5.90;2.75;;;28.60;32.40;;;;;;4935334;28;45060;-60
2023/06/12 11:03:12;;;;;;;3.92;2.53;;;28.60;31.10;;;;;;4938609;28;46345;-61
2023/06/12 11:05:38;;;;;;;2.35;2.00;;;28.60;31.40;;;;;;4950530;28;45259;-62
2023/06/12 11:08:08;;;;;;;5.20;2.72;;;28.60;32.20;;;;;;4945760;28;45487;-60
2023/06/12 11:10:34;;;;;;;3.00;2.50;;;28.60;32.20;;;;;;4920051;28;45555;-61
2023/06/12 11:13:00;;;;;;;3.08;2.47;;;28.60;32.30;;;;;;4958961;28;45272;-60
2023/06/12 11:15:26;;;;;;;3.15;2.60;;;28.60;32.20;;;;;;4938685;28;45005;-59
2023/06/12 11:17:51;;;;;;;3.35;2.22;;;28.60;32.20;;;;;;4907586;28;45237;-60
2023/06/12 11:20:19;;;;;;;4.07;2.35;;;28.60;32.10;;;;;;4948404;28;44937;-61
2023/06/12 11:22:48;;;;;;;2.50;2.28;;;28.70;31.90;;;;;;4961456;28;45199;-61
2023/06/12 11:25:15;;;;;;;4.50;2.20;;;28.70;31.90;;;;;;4938248;28;45236;-60
2023/06/12 11:27:41;;;;;;;4.18;2.55;;;28.70;32.10;;;;;;4945327;28;45093;-60
2023/06/12 11:30:11;;;;;;;4.40;2.60;;;28.70;32.10;;;;;;4940810;28;44808;-60
2023/06/12 11:32:37;;;;;;;5.65;2.50;;;28.70;31.70;;;;;;4935723;28;45461;-62
2023/06/12 11:35:04;;;;;;;4.05;2.60;;;28.80;32.10;;;;;;4939701;28;45287;-64
2023/06/12 11:37:30;;;;;;;3.03;2.25;;;28.70;31.70;;;;;;4939214;28;45600;-62
2023/06/12 11:40:10;;;;;;;3.17;2.33;;;28.80;32.00;;;;;;4945095;28;45555;-61
2023/06/12 11:42:37;;;;;;;2.33;2.13;;;28.80;31.20;;;;;;4942668;28;45784;-61
2023/06/12 11:45:06;;;;;;;5.43;2.30;;;28.80;31.90;;;;;;4927107;28;44868;-63
2023/06/12 11:47:33;;;;;;;3.67;2.28;;;28.80;32.00;;;;;;4919339;28;45466;-60
2023/06/12 11:49:59;;;;;;;2.55;2.20;;;28.80;31.90;;;;;;4952288;28;46263;-63
2023/06/12 11:52:25;;;;;;;2.97;2.33;;;28.80;32.00;;;;;;4937721;28;46604;-60
2023/06/12 11:55:05;;;;;;;4.93;2.40;;;28.80;31.90;;;;;;4927764;28;45189;-60
2023/06/12 11:57:31;;;;;;;2.25;2.03;;;28.80;31.60;;;;;;4938641;28;45184;-59
2023/06/12 11:59:57;;;;;;;2.28;2.08;;;28.80;31.80;;;;;;4942185;28;44797;-62
2023/06/12 12:02:33;;;;;;;2.28;1.95;;;28.80;31.70;;;;;;4904007;28;47408;-59
2023/06/12 12:05:04;;;;;;;2.90;2.35;;;28.80;30.80;;;;;;4940889;28;45010;-60
2023/06/12 12:07:30;;;;;;;3.95;2.30;;;28.80;31.30;;;;;;4923324;28;45466;-60
2023/06/12 12:10:04;;;;;;;4.55;2.42;;;28.80;31.20;;;;;;4918772;28;45376;-62
2023/06/12 12:12:49;;;;;;;2.58;2.00;;;28.80;30.60;;;;;;4956918;28;46146;-60
2023/06/12 12:15:16;;;;;;;5.05;2.33;;;28.80;29.60;;;;;;4931151;28;45521;-60
2023/06/12 12:17:42;;;;;;;2.97;2.28;;;28.80;30.60;;;;;;4938420;28;45397;-61
2023/06/12 12:20:18;;;;;;;4.97;2.25;;;28.80;30.50;;;;;;4937010;28;45395;-61
2023/06/12 12:22:51;;;;;;;4.50;2.58;;;28.80;29.80;;;;;;4940768;28;45547;-62
2023/06/12 12:25:22;;;;;;;3.22;2.60;;;28.80;29.90;;;;;;4951394;28;45421;-60
2023/06/12 12:27:49;;;;;;;2.38;2.17;;;28.80;30.50;;;;;;4942297;28;45412;-60
2023/06/12 12:30:15;;;;;;;3.15;2.33;;;28.80;31.00;;;;;;4936315;28;46820;-61
2023/06/12 12:32:45;;;;;;;2.40;2.10;;;28.80;30.40;;;;;;4934491;28;47228;-60
2023/06/12 12:35:11;;;;;;;3.38;2.05;;;28.80;30.20;;;;;;4932615;28;44723;-60
2023/06/12 12:37:37;;;;;;;2.90;2.53;;;28.80;30.40;;;;;;4949763;28;45882;-61
2023/06/12 12:40:08;;;;;;;2.78;2.20;;;28.80;30.50;;;;;;4936049;28;45570;-63
2023/06/12 12:42:34;;;;;;;2.72;2.42;;;28.80;30.50;;;;;;4922839;28;46055;-62
2023/06/12 12:45:00;;;;;;;3.53;2.33;;;28.90;30.60;;;;;;4958527;28;44903;-60
2023/06/12 12:47:25;;;;;;;2.40;1.83;;;28.80;30.60;;;;;;4933971;28;45619;-60
2023/06/12 12:49:51;;;;;;;3.53;2.53;;;28.80;30.60;;;;;;4925576;28;45318;-61
2023/06/12 12:52:16;;;;;;;3.08;2.47;;;28.80;30.80;;;;;;4933040;28;46386;-60
2023/06/12 12:54:42;;;;;;;6.57;2.80;;;28.90;30.70;;;;;;4940815;28;45450;-60
2023/06/12 12:57:08;;;;;;;9.88;2.80;;;28.90;30.70;;;;;;4938575;28;45275;-65
2023/06/12 12:59:34;;;;;;;4.70;2.10;;;28.90;30.80;;;;;;4944595;28;45846;-64
2023/06/12 13:01:59;;;;;;;2.33;2.13;;;28.90;30.80;;;;;;4945635;28;45410;-63
2023/06/12 13:04:25;;;;;;;3.97;2.33;;;28.90;30.90;;;;;;4927635;28;44727;-64
2023/06/12 13:06:51;;;;;;;3.38;2.28;;;28.90;30.80;;;;;;4943407;28;45508;-61
2023/06/12 13:09:17;;;;;;;3.80;2.22;;;28.90;30.90;;;;;;4933436;28;45190;-59
2023/06/12 13:11:42;;;;;;;4.55;2.13;;;28.90;30.80;;;;;;4934279;28;45535;-61
2023/06/12 13:14:08;;;;;;;4.85;2.38;;;28.90;30.80;;;;;;4944216;28;45339;-64
2023/06/12 13:16:34;;;;;;;5.68;2.28;;;28.90;30.70;;;;;;4941358;28;45336;-63
2023/06/12 13:19:00;;;;;;;5.70;2.05;;;28.90;30.70;;;;;;4945754;28;45494;-60
2023/06/12 13:21:25;;;;;;;2.53;2.33;;;28.90;30.50;;;;;;4935030;28;47110;-61
2023/06/12 13:23:51;;;;;;;4.32;2.28;;;29.00;30.70;;;;;;4932420;28;46152;-59
2023/06/12 13:26:16;;;;;;;3.28;2.05;;;28.90;30.60;;;;;;4927361;28;45663;-61
2023/06/12 13:28:42;;;;;;;3.25;2.30;;;28.90;30.40;;;;;;4966315;28;44974;-61
2023/06/12 13:31:07;;;;;;;4.38;2.10;;;28.90;30.20;;;;;;4931311;28;46360;-61
2023/06/12 13:33:33;;;;;;;2.85;2.40;;;28.90;30.10;;;;;;4930521;28;44955;-60
2023/06/12 13:36:01;;;;;;;4.20;2.35;;;28.90;30.00;;;;;;4960095;28;45448;-62
2023/06/12 13:38:27;;;;;;;3.17;2.20;;;28.90;29.90;;;;;;4951979;28;45470;-62
2023/06/12 13:40:52;;;;;;;4.75;2.40;;;28.90;29.90;;;;;;4955550;28;45689;-61
2023/06/12 13:43:18;;;;;;;6.07;2.40;;;28.90;29.90;;;;;;4931944;28;44964;-61
2023/06/12 13:45:43;;;;;;;3.67;2.30;;;28.90;29.80;;;;;;4956324;28;45766;-63
2023/06/12 13:48:09;;;;;;;2.97;2.30;;;28.90;29.70;;;;;;4949750;28;45499;-60
2023/06/12 13:50:35;;;;;;;2.45;2.17;;;28.90;29.50;;;;;;4945188;28;46371;-62
2023/06/12 13:53:00;;;;;;;4.10;2.33;;;28.90;29.60;;;;;;4967209;28;44933;-61
2023/06/12 13:55:26;;;;;;;5.65;2.60;;;28.90;29.60;;;;;;4930643;28;45499;-60
2023/06/12 13:57:53;;;;;;;2.42;2.22;;;28.90;29.70;;;;;;4950926;28;45239;-61
2023/06/12 14:00:20;;;;;;;5.38;2.20;;;28.90;29.70;;;;;;4923012;28;45514;-61
2023/06/12 14:02:45;;;;;;;4.10;1.92;;;28.90;29.70;;;;;;4914316;28;45331;-62
2023/06/12 14:05:13;;;;;;;2.58;2.25;;;28.90;29.70;;;;;;4948229;28;45635;-63
2023/06/12 14:07:39;;;;;;;6.55;2.40;;;28.90;29.80;;;;;;4954757;28;45313;-60
2023/06/12 14:10:07;;;;;;;2.20;2.00;;;28.90;29.90;;;;;;4942292;28;45504;-61
2023/06/12 14:12:33;;;;;;;5.72;2.33;;;28.90;29.80;;;;;;4930396;28;45095;-60
2023/06/12 14:14:59;;;;;;;3.33;2.22;;;28.90;29.90;;;;;;4942143;28;45539;-59
2023/06/12 14:17:25;;;;;;;3.40;2.28;;;28.90;29.80;;;;;;4935511;28;45256;-61
2023/06/12 14:19:51;;;;;;;3.35;2.13;;;28.90;29.80;;;;;;4963727;28;45405;-61
2023/06/12 14:22:16;;;;;;;2.90;2.10;;;28.90;30.30;;;;;;4956255;28;45330;-61
2023/06/12 14:24:42;;;;;;;2.53;1.88;;;28.90;29.90;;;;;;4937932;28;45192;-59
2023/06/12 14:27:07;;;;;;;2.67;2.25;;;28.90;30.00;;;;;;4928076;28;44875;-59
2023/06/12 14:29:33;;;;;;;3.83;2.58;;;28.90;30.00;;;;;;4965623;28;45471;-60
2023/06/12 14:31:58;;;;;;;4.72;2.53;;;28.90;30.00;;;;;;4937847;28;45654;-61
2023/06/12 14:34:25;;;;;;;2.20;1.80;;;28.90;29.90;;;;;;4962013;28;45207;-61
2023/06/12 14:36:50;;;;;;;3.17;2.35;;;28.80;29.90;;;;;;4915507;28;45407;-60
2023/06/12 14:39:16;;;;;;;3.13;2.80;;;28.90;29.80;;;;;;4947888;28;46411;-61
2023/06/12 14:41:41;;;;;;;3.83;2.58;;;28.80;29.50;;;;;;4939979;28;46153;-60
2023/06/12 14:44:07;;;;;;;3.95;2.30;;;28.80;29.40;;;;;;4958599;28;45264;-61
2023/06/12 14:46:32;;;;;;;3.35;2.55;;;28.80;29.40;;;;;;4959357;28;45319;-60
2023/06/12 14:48:58;;;;;;;3.65;2.58;;;28.80;29.40;;;;;;4924279;28;45554;-64
2023/06/12 14:51:24;;;;;;;2.60;2.40;;;28.80;29.50;;;;;;4958682;28;45644;-61
2023/06/12 14:53:49;;;;;;;4.30;2.50;;;28.80;29.60;;;;;;4957364;28;45414;-60
2023/06/12 14:56:15;;;;;;;3.78;2.65;;;28.80;29.60;;;;;;4958237;28;45160;-60
2023/06/12 14:58:40;;;;;;;6.05;2.78;;;28.80;29.50;;;;;;4965376;28;46577;-60
2023/06/12 15:01:06;;;;;;;2.60;2.40;;;28.80;29.50;;;;;;4929532;28;45679;-62
2023/06/12 15:03:31;;;;;;;5.75;2.72;;;28.80;29.60;;;;;;4941061;28;45343;-61
2023/06/12 15:05:57;;;;;;;3.13;2.70;;;28.80;29.30;;;;;;4954400;28;45310;-61
2023/06/12 15:08:22;;;;;;;2.63;2.35;;;28.80;29.40;;;;;;4943365;28;45969;-62
2023/06/12 15:10:49;;;;;;;2.70;2.40;;;28.80;29.30;;;;;;4936901;28;45359;-61
2023/06/12 15:13:15;;;;;;;2.47;2.28;;;28.70;29.20;;;;;;4930658;28;44862;-61
2023/06/12 15:15:41;;;;;;;3.05;2.70;;;28.70;29.00;;;;;;4925510;28;45161;-62
2023/06/12 15:18:06;;;;;;;5.28;2.83;;;28.70;28.80;;;;;;4949755;28;45410;-61
2023/06/12 15:20:32;;;;;;;3.55;2.67;;;28.70;28.80;;;;;;4951150;28;45447;-60
2023/06/12 15:22:57;;;;;;;3.53;2.42;;;28.70;28.80;;;;;;4947996;28;44917;-62
2023/06/12 15:25:23;;;;;;;4.53;2.45;;;28.70;28.90;;;;;;4940523;28;45660;-60
2023/06/12 15:27:48;;;;;;;3.75;2.60;;;28.60;28.80;;;;;;4962826;28;45386;-60
2023/06/12 15:30:14;;;;;;;4.93;2.53;;;28.60;28.80;;;;;;4955791;28;45560;-61
2023/06/12 15:32:41;;;;;;;3.42;2.63;;;28.70;28.80;;;;;;4953074;28;44922;-59
2023/06/12 15:35:08;;;;;;;4.13;3.00;;;28.70;28.80;;;;;;4937971;28;45224;-63
2023/06/12 15:37:33;;;;;;;3.10;2.60;;;28.60;28.80;;;;;;4941944;28;45650;-61
2023/06/12 15:39:59;;;;;;;6.45;2.60;;;28.70;28.90;;;;;;4910601;28;45576;-60
2023/06/12 15:42:24;;;;;;;3.78;2.53;;;28.60;28.70;;;;;;4945808;28;45329;-61
2023/06/12 15:44:50;;;;;;;2.47;2.28;;;28.60;28.70;;;;;;4938014;28;45970;-62